Time;durP1;ratioP1;P1;durP2;ratioP2;P2;SDS_P1;SDS_P2;PMS_P1;PMS_P2;Temp;Humidity;BMP_temperature;BMP_pressure;BME280_temperature;BME280_humidity;BME280_pressure;Samples;Min_cycle;Max_cycle;Signal;HPM_P1;HPM_P2
2024/04/14 00:00:38;;;;;;;;;;;22.90;48.40;;;;;;5524022;25;20557;-46
2024/04/14 00:03:04;;;;;;;;;;;22.90;48.70;;;;;;5521870;25;19928;-41
2024/04/14 00:05:30;;;;;;;;;;;22.90;48.40;;;;;;5499568;25;20374;-42
2024/04/14 00:07:55;;;;;;;;;;;22.90;48.30;;;;;;5512132;26;19971;-41
2024/04/14 00:10:21;;;;;;;;;;;22.90;48.30;;;;;;5514687;25;19927;-41
2024/04/14 00:12:47;;;;;;;;;;;22.80;48.70;;;;;;5499570;26;19935;-42
2024/04/14 00:15:13;;;;;;;;;;;22.80;48.90;;;;;;5505698;25;19982;-42
2024/04/14 00:17:39;;;;;;;;;;;22.80;48.80;;;;;;5499556;25;19928;-43
2024/04/14 00:20:06;;;;;;;;;;;22.80;48.70;;;;;;5519036;26;19927;-44
2024/04/14 00:22:32;;;;;;;;;;;22.80;48.60;;;;;;5505984;26;19927;-43
2024/04/14 00:24:58;;;;;;;;;;;22.80;48.50;;;;;;5507379;26;19932;-43
2024/04/14 00:27:24;;;;;;;;;;;22.80;48.60;;;;;;5499109;25;19928;-41
2024/04/14 00:29:50;;;;;;;;;;;22.80;48.70;;;;;;5498937;26;19935;-41
2024/04/14 00:32:15;;;;;;;;;;;22.80;48.60;;;;;;5499210;25;20421;-42
2024/04/14 00:34:41;;;;;;;;;;;22.70;48.60;;;;;;5511351;26;20254;-45
2024/04/14 00:37:07;;;;;;;;;;;22.70;48.30;;;;;;5525563;26;19927;-43
2024/04/14 00:39:33;;;;;;;;;;;22.70;48.30;;;;;;5517996;26;19927;-45
2024/04/14 00:42:00;;;;;;;;;;;22.70;48.20;;;;;;5500170;26;19927;-42
2024/04/14 00:44:26;;;;;;;;;;;22.70;48.20;;;;;;5503342;25;19928;-41
2024/04/14 00:46:54;;;;;;;;;;;22.70;48.20;;;;;;5498783;26;19955;-41
2024/04/14 00:49:20;;;;;;;;;;;22.60;48.30;;;;;;5507020;26;19952;-43
2024/04/14 00:51:46;;;;;;;;;;;22.60;48.20;;;;;;5480780;26;19928;-43
2024/04/14 00:54:17;;;;;;;;;;;22.60;48.10;;;;;;5512968;25;19938;-42
2024/04/14 00:56:46;;;;;;;;;;;22.60;48.10;;;;;;5498191;25;19928;-45
2024/04/14 00:59:12;;;;;;;;;;;22.60;48.00;;;;;;5498633;26;19938;-44
2024/04/14 01:01:38;;;;;;;;;;;22.60;48.10;;;;;;5498571;25;19935;-44
2024/04/14 01:04:05;;;;;;;;;;;22.60;48.60;;;;;;5499792;26;19928;-42
2024/04/14 01:06:36;;;;;;;;;;;22.50;48.00;;;;;;5478851;26;19996;-43
2024/04/14 01:09:05;;;;;;;;;;;22.50;48.00;;;;;;5511495;25;20252;-41
2024/04/14 01:11:31;;;;;;;;;;;22.50;48.10;;;;;;5526866;25;19931;-42
2024/04/14 01:13:56;;;;;;;;;;;22.50;48.10;;;;;;5523109;25;19931;-41
2024/04/14 01:16:22;;;;;;;;;;;22.50;48.10;;;;;;5525206;26;19928;-42
2024/04/14 01:18:49;;;;;;;;;;;22.40;48.10;;;;;;5519375;26;19935;-48
2024/04/14 01:21:15;;;;;;;;;;;22.40;48.10;;;;;;5496324;26;19935;-42
2024/04/14 01:23:41;;;;;;;;;;;22.40;48.20;;;;;;5501137;26;19928;-42
2024/04/14 01:26:07;;;;;;;;;;;22.40;48.20;;;;;;5501439;25;19927;-43
2024/04/14 01:28:33;;;;;;;;;;;22.40;48.30;;;;;;5521647;25;19932;-43
2024/04/14 01:30:59;;;;;;;;;;;22.40;48.30;;;;;;5521175;25;19927;-40
2024/04/14 01:33:25;;;;;;;;;;;22.30;48.30;;;;;;5506674;26;19928;-41
2024/04/14 01:35:51;;;;;;;;;;;22.30;48.30;;;;;;5520243;25;19928;-43
2024/04/14 01:38:17;;;;;;;;;;;22.30;48.40;;;;;;5484609;26;19927;-42
2024/04/14 01:40:43;;;;;;;;;;;22.30;48.40;;;;;;5525089;26;19934;-43
2024/04/14 01:43:08;;;;;;;;;;;22.30;48.40;;;;;;5519449;26;19931;-42
2024/04/14 01:45:34;;;;;;;;;;;22.30;48.40;;;;;;5507766;26;19939;-46
2024/04/14 01:48:00;;;;;;;;;;;22.20;48.50;;;;;;5515896;25;19944;-41
2024/04/14 01:50:26;;;;;;;;;;;22.20;48.50;;;;;;5521520;25;19935;-42
2024/04/14 01:52:52;;;;;;;;;;;22.20;48.60;;;;;;5537102;25;19934;-42
2024/04/14 01:55:18;;;;;;;;;;;22.20;48.50;;;;;;5518739;25;19927;-44
2024/04/14 01:57:44;;;;;;;;;;;22.10;48.50;;;;;;5510527;25;19938;-42
2024/04/14 02:00:10;;;;;;;;;;;22.10;48.50;;;;;;5505698;25;19960;-41
2024/04/14 02:02:36;;;;;;;;;;;22.10;48.60;;;;;;5509035;25;19935;-43
2024/04/14 02:05:02;;;;;;;;;;;22.10;48.50;;;;;;5506785;25;19928;-41
2024/04/14 02:07:28;;;;;;;;;;;22.10;48.60;;;;;;5513287;25;19973;-42
2024/04/14 02:09:54;;;;;;;;;;;22.00;48.60;;;;;;5513246;25;20263;-43
2024/04/14 02:12:20;;;;;;;;;;;22.00;48.70;;;;;;5528543;25;19935;-41
2024/04/14 02:14:46;;;;;;;;;;;22.00;48.70;;;;;;5517104;25;20013;-41
2024/04/14 02:17:12;;;;;;;;;;;22.00;48.80;;;;;;5518031;25;19928;-43
2024/04/14 02:19:38;;;;;;;;;;;22.00;49.30;;;;;;5526720;25;19943;-43
2024/04/14 02:22:04;;;;;;;;;;;22.00;48.80;;;;;;5506551;26;19940;-42
2024/04/14 02:24:32;;;;;;;;;;;21.90;48.70;;;;;;5501497;25;19928;-44
2024/04/14 02:26:58;;;;;;;;;;;21.90;48.80;;;;;;5513830;25;19934;-43
2024/04/14 02:29:26;;;;;;;;;;;21.90;48.80;;;;;;5501228;25;19931;-41
2024/04/14 02:31:52;;;;;;;;;;;21.80;48.80;;;;;;5500832;25;19928;-42
2024/04/14 02:34:18;;;;;;;;;;;21.90;49.00;;;;;;5518654;26;19935;-41
2024/04/14 02:36:44;;;;;;;;;;;21.80;48.90;;;;;;5478207;26;19928;-40
2024/04/14 02:39:12;;;;;;;;;;;21.80;49.00;;;;;;5501566;25;19936;-42
2024/04/14 02:41:38;;;;;;;;;;;21.80;49.00;;;;;;5521720;25;20024;-42
2024/04/14 02:44:05;;;;;;;;;;;21.70;48.90;;;;;;5519540;26;19931;-41
2024/04/14 02:46:31;;;;;;;;;;;21.80;49.00;;;;;;5519632;26;20267;-42
2024/04/14 02:48:57;;;;;;;;;;;21.70;49.00;;;;;;5526545;26;20365;-42
2024/04/14 02:51:23;;;;;;;;;;;21.70;49.10;;;;;;5532250;25;19959;-43
2024/04/14 02:53:49;;;;;;;;;;;21.70;49.10;;;;;;5509408;26;20006;-42
2024/04/14 02:56:15;;;;;;;;;;;21.70;49.10;;;;;;5501398;25;19928;-42
2024/04/14 02:58:41;;;;;;;;;;;21.60;49.10;;;;;;5508898;25;19939;-42
2024/04/14 03:01:10;;;;;;;;;;;21.60;49.10;;;;;;5485942;26;19998;-41
2024/04/14 03:03:36;;;;;;;;;;;21.60;49.20;;;;;;5500822;25;19934;-41
2024/04/14 03:06:02;;;;;;;;;;;21.60;49.20;;;;;;5501317;25;20011;-45
2024/04/14 03:08:28;;;;;;;;;;;21.50;49.20;;;;;;5500361;25;19928;-45
2024/04/14 03:10:54;;;;;;;;;;;21.50;49.20;;;;;;5501031;25;19939;-42
2024/04/14 03:13:20;;;;;;;;;;;21.50;49.30;;;;;;5517541;25;19928;-46
2024/04/14 03:15:46;;;;;;;;;;;21.50;49.30;;;;;;5513638;25;19928;-43
2024/04/14 03:18:12;;;;;;;;;;;21.50;49.40;;;;;;5514475;25;19928;-42
2024/04/14 03:20:38;;;;;;;;;;;21.50;49.40;;;;;;5518252;25;19928;-41
2024/04/14 03:23:04;;;;;;;;;;;21.40;49.40;;;;;;5513565;25;19927;-42
2024/04/14 03:25:30;;;;;;;;;;;21.40;49.40;;;;;;5513535;25;19934;-43
2024/04/14 03:27:56;;;;;;;;;;;21.40;49.50;;;;;;5513063;26;19932;-41
2024/04/14 03:30:22;;;;;;;;;;;21.40;49.50;;;;;;5517284;25;19935;-43
2024/04/14 03:32:48;;;;;;;;;;;21.30;49.50;;;;;;5508459;25;19928;-42
2024/04/14 03:35:13;;;;;;;;;;;21.30;49.50;;;;;;5513774;25;19928;-42
2024/04/14 03:37:40;;;;;;;;;;;21.30;49.60;;;;;;5482201;26;19932;-42
2024/04/14 03:40:06;;;;;;;;;;;21.30;49.60;;;;;;5512854;25;19932;-42
2024/04/14 03:42:34;;;;;;;;;;;21.30;49.60;;;;;;5505456;25;19954;-42
2024/04/14 03:45:02;;;;;;;;;;;21.20;49.60;;;;;;5524634;25;19939;-44
2024/04/14 03:47:28;;;;;;;;;;;21.20;49.60;;;;;;5499813;26;19928;-42
2024/04/14 03:49:54;;;;;;;;;;;21.20;49.70;;;;;;5519039;25;19936;-41
2024/04/14 03:52:20;;;;;;;;;;;21.20;49.70;;;;;;5528985;26;19928;-42
2024/04/14 03:54:46;;;;;;;;;;;21.10;49.60;;;;;;5500162;26;19928;-42
2024/04/14 03:57:12;;;;;;;;;;;21.10;49.70;;;;;;5500891;25;19935;-43
2024/04/14 03:59:38;;;;;;;;;;;21.10;49.80;;;;;;5523502;25;20720;-43
2024/04/14 04:02:04;;;;;;;;;;;21.10;49.90;;;;;;5531547;25;20314;-45
2024/04/14 04:04:30;;;;;;;;;;;21.10;49.80;;;;;;5501230;26;19973;-44
2024/04/14 04:06:55;;;;;;;;;;;21.00;49.80;;;;;;5525619;26;19934;-49
2024/04/14 04:09:21;;;;;;;;;;;21.00;49.90;;;;;;5531051;25;19996;-49
2024/04/14 04:11:47;;;;;;;;;;;21.00;49.90;;;;;;5509653;26;19932;-44
2024/04/14 04:14:13;;;;;;;;;;;21.00;49.90;;;;;;5507175;26;19928;-44
2024/04/14 04:16:39;;;;;;;;;;;21.00;50.00;;;;;;5520112;26;19931;-43
2024/04/14 04:19:07;;;;;;;;;;;20.90;50.00;;;;;;5508126;26;21394;-42
2024/04/14 04:21:33;;;;;;;;;;;20.90;50.00;;;;;;5518710;25;19991;-42
2024/04/14 04:23:59;;;;;;;;;;;20.90;50.10;;;;;;5519120;26;20367;-44
2024/04/14 04:26:25;;;;;;;;;;;20.90;50.10;;;;;;5512581;26;19935;-42
2024/04/14 04:28:50;;;;;;;;;;;20.90;50.10;;;;;;5523532;26;19932;-42
2024/04/14 04:31:16;;;;;;;;;;;20.80;50.10;;;;;;5517621;25;20282;-41
2024/04/14 04:33:43;;;;;;;;;;;20.80;50.10;;;;;;5518799;25;19928;-41
2024/04/14 04:36:11;;;;;;;;;;;20.80;50.20;;;;;;5529320;25;19935;-45
2024/04/14 04:38:37;;;;;;;;;;;20.80;50.20;;;;;;5532118;26;19971;-43
2024/04/14 04:41:04;;;;;;;;;;;20.70;50.20;;;;;;5531138;25;19936;-41
2024/04/14 04:43:30;;;;;;;;;;;20.70;50.20;;;;;;5513227;26;20763;-46
2024/04/14 04:45:56;;;;;;;;;;;20.70;50.30;;;;;;5506093;26;19928;-41
2024/04/14 04:48:22;;;;;;;;;;;20.70;50.30;;;;;;5516684;26;20460;-42
2024/04/14 04:50:48;;;;;;;;;;;20.70;50.30;;;;;;5531620;26;19939;-41
2024/04/14 04:53:14;;;;;;;;;;;20.60;50.30;;;;;;5514293;25;19934;-44
2024/04/14 04:55:40;;;;;;;;;;;20.60;50.40;;;;;;5507319;26;20471;-41
2024/04/14 04:58:06;;;;;;;;;;;20.60;50.40;;;;;;5519360;25;19963;-42
2024/04/14 05:00:32;;;;;;;;;;;20.60;50.50;;;;;;5500484;25;19928;-42
2024/04/14 05:02:58;;;;;;;;;;;20.60;50.50;;;;;;5500304;25;19936;-41
2024/04/14 05:05:24;;;;;;;;;;;20.60;50.50;;;;;;5514002;26;19927;-42
2024/04/14 05:07:50;;;;;;;;;;;20.60;50.60;;;;;;5500730;25;19928;-44
2024/04/14 05:10:16;;;;;;;;;;;20.50;50.60;;;;;;5521747;25;19927;-41
2024/04/14 05:12:42;;;;;;;;;;;20.50;50.60;;;;;;5522506;26;19944;-42
2024/04/14 05:15:08;;;;;;;;;;;20.50;50.60;;;;;;5518132;25;19934;-42
2024/04/14 05:17:34;;;;;;;;;;;20.40;50.60;;;;;;5511898;26;19973;-42
2024/04/14 05:20:00;;;;;;;;;;;20.40;50.60;;;;;;5506853;26;19936;-46
2024/04/14 05:22:26;;;;;;;;;;;20.40;50.60;;;;;;5512244;26;19934;-44
2024/04/14 05:24:52;;;;;;;;;;;20.40;50.70;;;;;;5501557;25;19927;-43
2024/04/14 05:27:19;;;;;;;;;;;20.30;50.70;;;;;;5518925;26;19958;-45
2024/04/14 05:29:48;;;;;;;;;;;20.30;50.70;;;;;;5531911;26;19934;-42
2024/04/14 05:32:14;;;;;;;;;;;20.30;50.70;;;;;;5506606;25;19940;-41
2024/04/14 05:34:41;;;;;;;;;;;20.30;50.80;;;;;;5523347;26;19952;-44
2024/04/14 05:37:07;;;;;;;;;;;20.20;50.70;;;;;;5527470;25;19931;-42
2024/04/14 05:39:32;;;;;;;;;;;20.20;50.80;;;;;;5511313;26;20396;-41
2024/04/14 05:41:58;;;;;;;;;;;20.20;50.90;;;;;;5512021;26;20658;-42
2024/04/14 05:44:24;;;;;;;;;;;20.20;50.90;;;;;;5524769;26;19927;-41
2024/04/14 05:46:50;;;;;;;;;;;20.20;50.90;;;;;;5521844;25;20005;-43
2024/04/14 05:49:20;;;;;;;;;;;20.20;50.90;;;;;;5515409;26;19943;-42
2024/04/14 05:51:46;;;;;;;;;;;20.20;51.00;;;;;;5521191;25;19953;-47
2024/04/14 05:54:12;;;;;;;;;;;20.10;51.00;;;;;;5515578;25;19927;-45
2024/04/14 05:56:38;;;;;;;;;;;20.10;51.00;;;;;;5542439;25;19935;-46
2024/04/14 05:59:04;;;;;;;;;;;20.10;51.00;;;;;;5515882;26;19931;-46
2024/04/14 06:01:29;;;;;;;;;;;20.10;51.00;;;;;;5518529;25;19934;-44
2024/04/14 06:03:55;;;;;;;;;;;20.00;51.00;;;;;;5520870;26;19939;-44
2024/04/14 06:06:21;;;;;;;;;;;20.00;51.00;;;;;;5516522;26;19939;-46
2024/04/14 06:08:47;;;;;;;;;;;20.00;51.10;;;;;;5482993;26;19928;-43
2024/04/14 06:11:13;;;;;;;;;;;20.00;51.10;;;;;;5529080;25;19927;-45
2024/04/14 06:13:39;;;;;;;;;;;20.00;51.20;;;;;;5534734;26;19927;-44
2024/04/14 06:16:05;;;;;;;;;;;19.90;51.20;;;;;;5520349;26;19958;-41
2024/04/14 06:18:31;;;;;;;;;;;19.90;51.20;;;;;;5514845;26;19953;-43
2024/04/14 06:20:56;;;;;;;;;;;19.90;51.20;;;;;;5514414;26;19928;-43
2024/04/14 06:23:22;;;;;;;;;;;19.90;51.30;;;;;;5519466;26;19928;-44
2024/04/14 06:25:48;;;;;;;;;;;19.90;51.30;;;;;;5521483;26;20275;-41
2024/04/14 06:28:16;;;;;;;;;;;19.90;51.40;;;;;;5531048;25;19934;-44
2024/04/14 06:30:42;;;;;;;;;;;19.80;51.30;;;;;;5514239;26;19935;-43
2024/04/14 06:33:08;;;;;;;;;;;19.80;51.30;;;;;;5516806;25;19928;-42
2024/04/14 06:35:35;;;;;;;;;;;19.80;51.30;;;;;;5512476;25;19938;-43
2024/04/14 06:38:01;;;;;;;;;;;19.80;51.40;;;;;;5502502;26;19973;-43
2024/04/14 06:40:27;;;;;;;;;;;19.80;51.40;;;;;;5514681;26;19936;-43
2024/04/14 06:42:53;;;;;;;;;;;19.80;51.50;;;;;;5514655;26;20353;-41
2024/04/14 06:45:19;;;;;;;;;;;19.70;51.40;;;;;;5520922;26;20644;-43
2024/04/14 06:47:45;;;;;;;;;;;19.70;51.50;;;;;;5501232;26;19928;-43
2024/04/14 06:50:11;;;;;;;;;;;19.70;51.50;;;;;;5528936;25;19972;-42
2024/04/14 06:52:37;;;;;;;;;;;19.60;51.50;;;;;;5513731;26;19939;-43
2024/04/14 06:55:03;;;;;;;;;;;19.70;51.60;;;;;;5527527;26;19928;-43
2024/04/14 06:57:29;;;;;;;;;;;19.60;51.60;;;;;;5532978;25;19943;-47
2024/04/14 06:59:55;;;;;;;;;;;19.60;51.60;;;;;;5521948;25;20014;-43
2024/04/14 07:02:21;;;;;;;;;;;19.60;51.60;;;;;;5530028;25;19973;-45
2024/04/14 07:04:47;;;;;;;;;;;19.60;51.70;;;;;;5516098;25;19927;-42
2024/04/14 07:07:13;;;;;;;;;;;19.60;51.70;;;;;;5516392;26;20018;-44
2024/04/14 07:09:38;;;;;;;;;;;19.60;51.80;;;;;;5520220;26;19928;-45
2024/04/14 07:12:04;;;;;;;;;;;19.50;51.70;;;;;;5505452;26;19931;-50
2024/04/14 07:14:30;;;;;;;;;;;19.50;51.80;;;;;;5518298;25;19940;-42
2024/04/14 07:16:56;;;;;;;;;;;19.50;51.80;;;;;;5520481;25;19932;-42
2024/04/14 07:19:22;;;;;;;;;;;19.50;51.80;;;;;;5479211;26;19956;-45
2024/04/14 07:21:48;;;;;;;;;;;19.50;51.90;;;;;;5532949;26;19939;-42
2024/04/14 07:24:14;;;;;;;;;;;19.40;51.80;;;;;;5518775;26;19928;-44
2024/04/14 07:26:39;;;;;;;;;;;19.40;51.80;;;;;;5533294;25;19927;-42
2024/04/14 07:29:05;;;;;;;;;;;19.40;51.90;;;;;;5506927;25;19939;-44
2024/04/14 07:31:31;;;;;;;;;;;19.40;52.00;;;;;;5518709;26;20977;-44
2024/04/14 07:34:00;;;;;;;;;;;19.40;52.40;;;;;;5521050;25;19939;-41
2024/04/14 07:36:26;;;;;;;;;;;19.50;52.60;;;;;;5531651;25;19943;-45
2024/04/14 07:38:52;;;;;;;;;;;19.50;52.50;;;;;;5532861;26;19978;-44
2024/04/14 07:41:21;;;;;;;;;;;19.50;52.50;;;;;;5529025;25;19935;-44
2024/04/14 07:43:47;;;;;;;;;;;19.40;52.40;;;;;;5504030;25;19992;-46
2024/04/14 07:46:13;;;;;;;;;;;19.40;52.40;;;;;;5519435;25;19928;-44
2024/04/14 07:48:39;;;;;;;;;;;19.40;52.40;;;;;;5530496;25;19934;-43
2024/04/14 07:51:05;;;;;;;;;;;19.40;52.40;;;;;;5514770;26;19927;-44
2024/04/14 07:53:31;;;;;;;;;;;19.40;52.40;;;;;;5531973;26;19927;-42
2024/04/14 07:55:57;;;;;;;;;;;19.40;52.40;;;;;;5533976;25;20257;-45
2024/04/14 07:58:23;;;;;;;;;;;19.40;53.00;;;;;;5531052;25;19996;-43
2024/04/14 08:00:49;;;;;;;;;;;19.30;52.40;;;;;;5532955;26;20336;-43
2024/04/14 08:03:16;;;;;;;;;;;19.40;52.90;;;;;;5527909;25;19971;-45
2024/04/14 08:05:42;;;;;;;;;;;19.40;52.90;;;;;;5508657;26;19932;-43
2024/04/14 08:08:08;;;;;;;;;;;19.40;52.90;;;;;;5506315;25;19936;-43
2024/04/14 08:10:34;;;;;;;;;;;19.40;52.90;;;;;;5514116;25;19939;-46
2024/04/14 08:13:00;;;;;;;;;;;19.40;52.90;;;;;;5525322;25;19935;-43
2024/04/14 08:15:27;;;;;;;;;;;19.40;52.80;;;;;;5530862;25;19952;-43
2024/04/14 08:17:56;;;;;;;;;;;19.40;52.80;;;;;;5531625;25;19927;-41
2024/04/14 08:20:25;;;;;;;;;;;19.30;52.80;;;;;;5510244;25;19928;-43
2024/04/14 08:22:51;;;;;;;;;;;19.30;52.80;;;;;;5531770;26;19936;-42
2024/04/14 08:25:17;;;;;;;;;;;19.30;52.80;;;;;;5530370;26;19980;-43
2024/04/14 08:27:43;;;;;;;;;;;19.30;52.80;;;;;;5518868;26;19948;-42
2024/04/14 08:30:09;;;;;;;;;;;19.30;53.10;;;;;;5517544;25;19928;-42
2024/04/14 08:32:35;;;;;;;;;;;19.40;53.30;;;;;;5521732;25;19928;-44
2024/04/14 08:35:02;;;;;;;;;;;19.30;53.10;;;;;;5499724;26;19934;-43
2024/04/14 08:37:28;;;;;;;;;;;19.40;53.20;;;;;;5499943;25;19992;-43
2024/04/14 08:39:54;;;;;;;;;;;19.30;53.10;;;;;;5500194;26;19973;-42
2024/04/14 08:42:20;;;;;;;;;;;19.30;53.10;;;;;;5499940;25;19947;-43
2024/04/14 08:44:46;;;;;;;;;;;19.30;53.00;;;;;;5505313;25;19934;-43
2024/04/14 08:47:12;;;;;;;;;;;19.30;53.00;;;;;;5525689;25;19939;-42
2024/04/14 08:49:37;;;;;;;;;;;19.30;53.00;;;;;;5474716;26;19932;-41
2024/04/14 08:52:03;;;;;;;;;;;19.20;53.00;;;;;;5513634;25;19935;-42
2024/04/14 08:54:29;;;;;;;;;;;19.30;53.30;;;;;;5517015;25;19995;-43
2024/04/14 08:57:00;;;;;;;;;;;19.40;53.50;;;;;;5506806;25;19960;-44
2024/04/14 08:59:26;;;;;;;;;;;19.40;53.40;;;;;;5511892;25;19973;-43
2024/04/14 09:01:52;;;;;;;;;;;19.40;53.40;;;;;;5507233;25;19935;-43
2024/04/14 09:04:18;;;;;;;;;;;19.30;53.30;;;;;;5516493;25;19960;-42
2024/04/14 09:06:44;;;;;;;;;;;19.30;53.30;;;;;;5467064;26;19927;-42
2024/04/14 09:09:13;;;;;;;;;;;19.30;53.20;;;;;;5500020;25;19928;-41
2024/04/14 09:11:51;;;;;;;;;;;19.30;53.20;;;;;;5511502;25;19952;-41
2024/04/14 09:14:18;;;;;;;;;;;19.20;53.20;;;;;;5512052;26;20005;-42
2024/04/14 09:16:44;;;;;;;;;;;19.20;53.40;;;;;;5511887;25;19975;-44
2024/04/14 09:19:09;;;;;;;;;;;19.30;53.50;;;;;;5520870;25;19928;-42
2024/04/14 09:21:35;;;;;;;;;;;19.30;53.50;;;;;;5519656;26;19931;-43
2024/04/14 09:24:01;;;;;;;;;;;19.30;53.50;;;;;;5517471;25;19928;-44
2024/04/14 09:26:27;;;;;;;;;;;19.30;53.50;;;;;;5512330;26;19963;-44
2024/04/14 09:29:02;;;;;;;;;;;19.30;53.50;;;;;;5523161;26;19935;-43
2024/04/14 09:31:28;;;;;;;;;;;19.30;53.50;;;;;;5531541;26;19927;-46
2024/04/14 09:33:54;;;;;;;;;;;19.30;53.40;;;;;;5530214;25;19935;-48
2024/04/14 09:36:26;;;;;;;;;;;19.20;53.30;;;;;;5481090;26;19967;-43
2024/04/14 09:38:55;;;;;;;;;;;19.20;53.50;;;;;;5523829;26;19935;-43
2024/04/14 09:41:21;;;;;;;;;;;19.30;53.70;;;;;;5507827;26;20000;-47
2024/04/14 09:43:47;;;;;;;;;;;19.40;53.80;;;;;;5511931;26;19928;-44
2024/04/14 09:46:16;;;;;;;;;;;19.30;53.70;;;;;;5516873;25;19934;-43
2024/04/14 09:48:42;;;;;;;;;;;19.30;53.70;;;;;;5518751;25;20368;-43
2024/04/14 09:51:15;;;;;;;;;;;19.30;53.70;;;;;;5489364;25;19928;-42
2024/04/14 09:53:41;;;;;;;;;;;19.30;53.70;;;;;;5490928;26;19935;-43
2024/04/14 09:56:07;;;;;;;;;;;19.30;53.60;;;;;;5507993;25;19928;-43
2024/04/14 09:58:33;;;;;;;;;;;19.30;53.60;;;;;;5502228;26;19976;-43
2024/04/14 10:01:00;;;;;;;;;;;19.20;54.10;;;;;;5514915;26;19927;-45
2024/04/14 10:03:26;;;;;;;;;;;19.20;53.80;;;;;;5522450;25;19934;-42
2024/04/14 10:05:52;;;;;;;;;;;19.30;53.90;;;;;;5501867;25;19935;-43
2024/04/14 10:08:18;;;;;;;;;;;19.30;53.80;;;;;;5502304;26;19928;-46
2024/04/14 10:10:44;;;;;;;;;;;19.30;53.80;;;;;;5482747;26;20000;-44
2024/04/14 10:13:11;;;;;;;;;;;19.30;53.80;;;;;;5470517;25;19935;-43
2024/04/14 10:15:38;;;;;;;;;;;19.30;53.80;;;;;;5515390;26;19931;-46
2024/04/14 10:18:16;;;;;;;;;;;19.30;53.70;;;;;;5532743;26;19927;-44
2024/04/14 10:20:46;;;;;;;;;;;19.20;53.70;;;;;;5472911;26;20377;-43
2024/04/14 10:23:18;;;;;;;;;;;19.20;53.90;;;;;;5527741;25;19943;-45
2024/04/14 10:25:47;;;;;;;;;;;19.30;54.00;;;;;;5522942;26;19928;-43
2024/04/14 10:28:20;;;;;;;;;;;19.30;54.00;;;;;;5518555;26;19939;-42
2024/04/14 10:30:46;;;;;;;;;;;19.30;54.00;;;;;;5533847;26;19934;-42
2024/04/14 10:33:21;;;;;;;;;;;19.30;53.90;;;;;;5531187;25;19939;-44
2024/04/14 10:35:47;;;;;;;;;;;19.20;54.40;;;;;;5533361;26;19927;-45
2024/04/14 10:38:20;;;;;;;;;;;19.20;53.90;;;;;;5531769;26;19934;-43
2024/04/14 10:40:46;;;;;;;;;;;19.20;53.80;;;;;;5533405;25;19978;-42
2024/04/14 10:43:16;;;;;;;;;;;19.20;53.80;;;;;;5519491;26;19928;-43
2024/04/14 10:45:42;;;;;;;;;;;19.20;53.90;;;;;;5519694;26;19961;-43
2024/04/14 10:48:08;;;;;;;;;;;19.20;54.10;;;;;;5514564;25;19940;-43
2024/04/14 10:50:34;;;;;;;;;;;19.30;54.10;;;;;;5527370;25;19928;-43
2024/04/14 10:52:59;;;;;;;;;;;19.30;54.10;;;;;;5514250;25;19935;-43
2024/04/14 10:55:25;;;;;;;;;;;19.30;54.00;;;;;;5519206;25;19928;-46
2024/04/14 10:57:51;;;;;;;;;;;19.30;54.00;;;;;;5510597;26;20296;-45
2024/04/14 11:00:17;;;;;;;;;;;19.20;54.00;;;;;;5504015;26;20002;-44
2024/04/14 11:02:44;;;;;;;;;;;19.20;54.00;;;;;;5520459;26;19940;-43
2024/04/14 11:05:10;;;;;;;;;;;19.20;54.00;;;;;;5518107;25;19939;-44
2024/04/14 11:07:35;;;;;;;;;;;19.20;54.10;;;;;;5531825;25;19976;-44
2024/04/14 11:10:01;;;;;;;;;;;19.30;54.20;;;;;;5507599;25;19935;-44
2024/04/14 11:12:27;;;;;;;;;;;19.30;54.20;;;;;;5499383;26;19973;-43
2024/04/14 11:14:54;;;;;;;;;;;19.30;54.20;;;;;;5487882;26;19936;-44
2024/04/14 11:17:20;;;;;;;;;;;19.30;54.20;;;;;;5499655;25;19950;-42
2024/04/14 11:19:46;;;;;;;;;;;19.30;54.10;;;;;;5532703;25;19972;-46
2024/04/14 11:22:15;;;;;;;;;;;19.20;54.10;;;;;;5532966;26;19939;-45
2024/04/14 11:24:41;;;;;;;;;;;19.20;54.10;;;;;;5532495;26;19931;-46
2024/04/14 11:27:07;;;;;;;;;;;19.20;54.00;;;;;;5530967;26;19935;-43
2024/04/14 11:29:33;;;;;;;;;;;19.20;54.00;;;;;;5481028;26;19927;-43
2024/04/14 11:32:07;;;;;;;;;;;19.20;54.20;;;;;;5514289;26;19935;-43
2024/04/14 11:34:33;;;;;;;;;;;19.30;54.30;;;;;;5519492;26;19927;-43
2024/04/14 11:36:59;;;;;;;;;;;19.30;54.30;;;;;;5532096;25;19934;-45
2024/04/14 11:39:25;;;;;;;;;;;19.30;54.30;;;;;;5517964;25;19939;-43
2024/04/14 11:41:51;;;;;;;;;;;19.30;54.30;;;;;;5532509;25;19928;-45
2024/04/14 11:44:17;;;;;;;;;;;19.20;54.20;;;;;;5530355;26;19935;-43
2024/04/14 11:46:42;;;;;;;;;;;19.20;54.20;;;;;;5519768;26;19935;-47
2024/04/14 11:49:08;;;;;;;;;;;19.20;54.20;;;;;;5523309;25;19928;-43
2024/04/14 11:51:34;;;;;;;;;;;19.20;54.30;;;;;;5507300;25;19935;-44
2024/04/14 11:54:00;;;;;;;;;;;19.20;54.40;;;;;;5532330;25;19931;-43
2024/04/14 11:56:26;;;;;;;;;;;19.30;54.40;;;;;;5534611;25;19935;-43
2024/04/14 11:58:52;;;;;;;;;;;19.30;54.40;;;;;;5528273;25;19952;-44
2024/04/14 12:01:18;;;;;;;;;;;19.30;54.40;;;;;;5516491;26;19928;-44
2024/04/14 12:03:43;;;;;;;;;;;19.30;54.30;;;;;;5518674;26;19935;-44
2024/04/14 12:06:09;;;;;;;;;;;19.20;54.30;;;;;;5530461;25;19935;-44
2024/04/14 12:08:35;;;;;;;;;;;19.20;54.30;;;;;;5519632;26;19939;-43
2024/04/14 12:11:01;;;;;;;;;;;19.20;54.20;;;;;;5532569;25;19931;-43
2024/04/14 12:13:29;;;;;;;;;;;19.20;54.20;;;;;;5530508;25;19928;-45
2024/04/14 12:15:56;;;;;;;;;;;19.20;54.40;;;;;;5514209;25;19958;-43
2024/04/14 12:18:22;;;;;;;;;;;19.30;54.40;;;;;;5528728;25;20681;-43
2024/04/14 12:20:48;;;;;;;;;;;19.30;54.40;;;;;;5513347;25;19934;-44
2024/04/14 12:23:14;;;;;;;;;;;19.30;54.40;;;;;;5529034;25;19948;-43
2024/04/14 12:25:42;;;;;;;;;;;19.30;54.40;;;;;;5521377;26;19927;-44
2024/04/14 12:28:08;;;;;;;;;;;19.20;54.30;;;;;;5516567;25;19927;-43
2024/04/14 12:30:36;;;;;;;;;;;19.20;54.30;;;;;;5506379;26;19999;-43
2024/04/14 12:33:03;;;;;;;;;;;19.20;54.30;;;;;;5517559;26;19965;-43
2024/04/14 12:35:29;;;;;;;;;;;19.20;54.50;;;;;;5531010;26;19952;-42
2024/04/14 12:37:55;;;;;;;;;;;19.30;54.50;;;;;;5532171;26;20001;-43
2024/04/14 12:40:21;;;;;;;;;;;19.30;54.50;;;;;;5517565;26;19942;-44
2024/04/14 12:42:47;;;;;;;;;;;19.30;54.40;;;;;;5531651;26;19927;-43
2024/04/14 12:45:13;;;;;;;;;;;19.30;54.40;;;;;;5517225;26;19928;-43
2024/04/14 12:47:38;;;;;;;;;;;19.30;55.00;;;;;;5531811;25;19927;-44
2024/04/14 12:50:04;;;;;;;;;;;19.20;54.30;;;;;;5511418;26;20009;-43
2024/04/14 12:52:30;;;;;;;;;;;19.20;54.30;;;;;;5512885;26;19936;-44
2024/04/14 12:54:56;;;;;;;;;;;19.20;54.30;;;;;;5523917;26;19927;-43
2024/04/14 12:57:22;;;;;;;;;;;19.20;54.30;;;;;;5516040;25;19928;-43
2024/04/14 12:59:48;;;;;;;;;;;19.30;54.50;;;;;;5531286;26;20004;-43
2024/04/14 13:02:14;;;;;;;;;;;19.40;54.60;;;;;;5528474;25;19935;-44
2024/04/14 13:04:43;;;;;;;;;;;19.40;54.50;;;;;;5507284;25;19935;-45
2024/04/14 13:07:09;;;;;;;;;;;19.40;54.50;;;;;;5515983;26;19928;-43
2024/04/14 13:09:35;;;;;;;;;;;19.40;54.50;;;;;;5516124;25;19928;-43
2024/04/14 13:12:01;;;;;;;;;;;19.40;54.50;;;;;;5536635;25;19934;-44
2024/04/14 13:14:27;;;;;;;;;;;19.40;54.50;;;;;;5501021;25;19936;-43
2024/04/14 13:16:52;;;;;;;;;;;19.40;54.40;;;;;;5474743;26;19928;-44
2024/04/14 13:19:18;;;;;;;;;;;19.40;54.40;;;;;;5474126;26;19928;-44
2024/04/14 13:21:44;;;;;;;;;;;19.40;54.30;;;;;;5488239;26;20397;-43
2024/04/14 13:24:10;;;;;;;;;;;19.40;54.30;;;;;;5495506;26;19939;-44
2024/04/14 13:26:36;;;;;;;;;;;19.40;54.30;;;;;;5497856;26;19962;-43
2024/04/14 13:29:02;;;;;;;;;;;19.40;54.60;;;;;;5484047;26;19973;-45
2024/04/14 13:31:28;;;;;;;;;;;19.50;54.60;;;;;;5497939;26;19959;-43
2024/04/14 13:33:54;;;;;;;;;;;19.50;54.50;;;;;;5498448;26;19967;-45
2024/04/14 13:36:20;;;;;;;;;;;19.50;54.60;;;;;;5493881;26;20047;-42
2024/04/14 13:38:46;;;;;;;;;;;19.50;54.50;;;;;;5479203;26;20440;-42
2024/04/14 13:41:12;;;;;;;;;;;19.50;54.40;;;;;;5478578;26;19931;-42
2024/04/14 13:43:38;;;;;;;;;;;19.50;54.40;;;;;;5481753;26;19936;-45
2024/04/14 13:46:04;;;;;;;;;;;19.50;54.40;;;;;;5484497;26;20011;-43
2024/04/14 13:48:30;;;;;;;;;;;19.50;54.30;;;;;;5477973;26;20376;-43
2024/04/14 13:50:56;;;;;;;;;;;19.50;54.30;;;;;;5485490;26;19928;-42
2024/04/14 13:53:21;;;;;;;;;;;19.50;54.20;;;;;;5473661;26;19952;-43
2024/04/14 13:55:47;;;;;;;;;;;19.50;54.20;;;;;;5485606;26;19970;-45
2024/04/14 13:58:19;;;;;;;;;;;19.60;54.70;;;;;;5467827;26;19981;-42
2024/04/14 14:00:46;;;;;;;;;;;19.60;54.20;;;;;;5476364;26;19963;-42
2024/04/14 14:03:12;;;;;;;;;;;19.60;54.10;;;;;;5480525;26;19928;-42
2024/04/14 14:05:38;;;;;;;;;;;19.60;54.10;;;;;;5479470;26;20372;-44
2024/04/14 14:08:04;;;;;;;;;;;19.60;54.10;;;;;;5466833;26;20002;-43
2024/04/14 14:10:30;;;;;;;;;;;19.60;54.10;;;;;;5484798;26;19928;-43